createdAt,value
2019-04-28T00:00:55.905Z,100504.44
2019-04-28T00:03:27.968Z,100510.27
2019-04-28T00:06:01.243Z,100501.47
2019-04-28T00:08:34.435Z,100511.81
2019-04-28T00:11:05.529Z,100502.52
2019-04-28T00:13:37.965Z,100506.41
2019-04-28T00:16:11.674Z,100460.61
2019-04-28T00:18:42.812Z,100497.03
2019-04-28T00:21:20.786Z,100486.69
2019-04-28T00:24:08.951Z,100490.05
2019-04-28T00:26:47.054Z,100493.96
2019-04-28T00:29:21.012Z,100492.59
2019-04-28T00:31:51.613Z,100492.85
2019-04-28T00:34:23.660Z,100499.34
2019-04-28T00:36:56.944Z,100489.17
2019-04-28T00:39:27.986Z,100496.70
2019-04-28T00:41:59.057Z,100483.97
2019-04-28T00:44:31.424Z,100480.91
2019-04-28T00:47:02.183Z,100470.83
2019-04-28T00:49:37.471Z,100473.98
2019-04-28T00:52:08.649Z,100466.45
2019-04-28T00:54:39.444Z,100464.76
2019-04-28T00:57:12.222Z,100461.40
2019-04-28T00:59:53.947Z,100461.95
2019-04-28T01:02:21.173Z,100452.96
2019-04-28T01:04:52.101Z,100452.20
2019-04-28T01:07:25.497Z,100460.08
2019-04-28T01:09:56.408Z,100452.20
2019-04-28T01:12:27.480Z,100458.36
2019-04-28T01:15:00.248Z,100463.68
2019-04-28T01:17:33.619Z,100464.47
2019-04-28T01:20:19.677Z,100473.70
2019-04-28T01:22:50.990Z,100464.34
2019-04-28T01:25:21.825Z,100472.87
2019-04-28T01:27:54.171Z,100474.73
2019-04-28T01:30:40.269Z,100469.32
2019-04-28T01:33:15.524Z,100445.51
2019-04-28T01:35:46.765Z,100417.89
2019-04-28T01:38:20.122Z,100398.41
2019-04-28T01:40:51.239Z,100392.23
2019-04-28T01:43:21.978Z,100394.17
2019-04-28T01:45:52.983Z,100387.55
2019-04-28T01:48:24.030Z,100379.27
2019-04-28T01:50:56.896Z,100378.42
2019-04-28T01:53:27.536Z,100377.25
2019-04-28T01:56:03.153Z,100386.13
2019-04-28T01:58:34.223Z,100382.45
2019-04-28T02:01:07.464Z,100382.66
2019-04-28T02:03:40.509Z,100383.22
2019-04-28T02:06:11.918Z,100384.36
2019-04-28T02:08:43.801Z,100382.45
2019-04-28T02:11:15.148Z,100379.72
2019-04-28T02:13:46.391Z,100376.41
2019-04-28T02:16:19.487Z,100369.85
2019-04-28T02:18:51.342Z,100381.19
2019-04-28T02:21:33.748Z,100384.91
2019-04-28T02:24:22.540Z,100381.59
2019-04-28T02:26:55.339Z,100381.11
2019-04-28T02:29:26.318Z,100377.46
2019-04-28T02:32:01.697Z,100381.80
2019-04-28T02:34:31.861Z,100379.30
2019-04-28T02:37:02.542Z,100380.98
2019-04-28T02:39:33.450Z,100383.92
2019-04-28T02:42:04.867Z,100373.08
2019-04-28T02:44:36.657Z,100378.71
2019-04-28T02:47:11.059Z,100382.36
2019-04-28T02:50:00.817Z,100386.27
2019-04-28T02:52:41.461Z,100381.77
2019-04-28T02:55:12.452Z,100385.09
2019-04-28T02:57:45.864Z,100382.78
2019-04-28T03:00:17.302Z,100378.52
2019-04-28T03:02:47.822Z,100375.68
2019-04-28T03:05:21.789Z,100388.61
2019-04-28T03:07:54.510Z,100379.59
2019-04-28T03:10:25.203Z,100379.78
2019-04-28T03:12:56.039Z,100383.64
2019-04-28T03:15:27.010Z,100385.86
2019-04-28T03:18:01.424Z,100387.26
2019-04-28T03:20:31.069Z,100378.56
2019-04-28T03:23:01.588Z,100383.58
2019-04-28T03:25:43.145Z,100379.97
2019-04-28T03:28:22.124Z,100379.27
2019-04-28T03:30:54.890Z,100381.45
2019-04-28T03:33:27.638Z,100373.31
2019-04-28T03:36:07.201Z,100378.39
2019-04-28T03:38:32.636Z,100382.81
2019-04-28T03:41:03.631Z,100381.77
2019-04-28T03:43:37.029Z,100388.03
2019-04-28T03:46:15.525Z,100392.44
2019-04-28T03:48:50.983Z,100393.09
2019-04-28T03:51:23.499Z,100393.98
2019-04-28T03:53:54.556Z,100399.51
2019-04-28T03:56:27.991Z,100394.83
2019-04-28T03:59:01.571Z,100397.47
2019-04-28T04:01:32.069Z,100399.81
2019-04-28T04:04:03.787Z,100396.62
2019-04-28T04:06:34.713Z,100385.92
2019-04-28T04:09:08.110Z,100396.84
2019-04-28T04:11:41.097Z,100402.74
2019-04-28T04:14:13.563Z,100401.27
2019-04-28T04:16:46.035Z,100396.11
2019-04-28T04:19:20.180Z,100404.05
2019-04-28T04:21:52.665Z,100412.74
2019-04-28T04:24:22.943Z,100406.64
2019-04-28T04:26:55.450Z,100417.85
2019-04-28T04:29:26.052Z,100416.65
2019-04-28T04:32:10.092Z,100417.79
2019-04-28T04:34:30.218Z,100425.34
2019-04-28T04:37:01.537Z,100411.76
2019-04-28T04:39:33.788Z,100412.46
2019-04-28T04:42:04.858Z,100414.09
2019-04-28T04:44:40.598Z,100410.77
2019-04-28T04:47:10.813Z,100420.34
2019-04-28T04:49:44.195Z,100411.56
2019-04-28T04:52:17.179Z,100414.13
2019-04-28T04:54:51.166Z,100405.59
2019-04-28T04:57:25.411Z,100414.92
2019-04-28T04:59:56.284Z,100412.81
2019-04-28T05:02:32.222Z,100408.41
2019-04-28T05:05:11.756Z,100422.52
2019-04-28T05:07:42.868Z,100418.88
2019-04-28T05:10:15.702Z,100417.89
2019-04-28T05:12:46.789Z,100415.16
2019-04-28T05:15:17.728Z,100409.02
2019-04-28T05:17:50.118Z,100408.92
2019-04-28T05:20:21.640Z,100410.43
2019-04-28T05:22:54.330Z,100411.88
2019-04-28T05:25:30.918Z,100412.89
2019-04-28T05:28:02.943Z,100408.92
2019-04-28T05:30:34.871Z,100421.99
2019-04-28T05:33:08.016Z,100416.80
2019-04-28T05:35:39.758Z,100413.23
2019-04-28T05:38:11.111Z,100421.36
2019-04-28T05:40:42.871Z,100427.94
2019-04-28T05:43:14.643Z,100425.92
2019-04-28T05:45:46.684Z,100429.72
2019-04-28T05:48:20.092Z,100431.05
2019-04-28T05:50:52.670Z,100427.23
2019-04-28T05:53:30.105Z,100428.20
2019-04-28T05:56:02.532Z,100423.50
2019-04-28T05:58:35.150Z,100432.23
2019-04-28T06:01:11.372Z,100428.75
2019-04-28T06:03:43.834Z,100424.20
2019-04-28T06:06:14.572Z,100421.84
2019-04-28T06:08:53.536Z,100427.04
2019-04-28T06:11:36.313Z,100429.84
2019-04-28T06:14:07.244Z,100427.23
2019-04-28T06:16:40.557Z,100431.56
2019-04-28T06:19:11.883Z,100420.82
2019-04-28T06:21:42.470Z,100413.00
2019-04-28T06:24:13.556Z,100420.91
2019-04-28T06:26:45.010Z,100424.34
2019-04-28T06:29:17.486Z,100426.42
2019-04-28T06:31:48.302Z,100422.86
2019-04-28T06:34:19.571Z,100432.64
2019-04-28T06:36:51.522Z,100428.88
2019-04-28T06:39:25.048Z,100422.33
2019-04-28T06:41:56.462Z,100423.32
2019-04-28T06:44:27.297Z,100422.87
2019-04-28T06:46:58.136Z,100428.90
2019-04-28T06:49:32.304Z,100436.32
2019-04-28T06:52:03.598Z,100417.52
2019-04-28T06:54:35.961Z,100420.22
2019-04-28T06:57:07.722Z,100415.25
2019-04-28T06:59:38.487Z,100418.38
2019-04-28T07:02:11.952Z,100413.30
2019-04-28T07:04:43.019Z,100408.88
2019-04-28T07:07:16.385Z,100400.94
2019-04-28T07:09:47.912Z,100390.45
2019-04-28T07:12:18.671Z,100397.20
2019-04-28T07:14:51.453Z,100392.16
2019-04-28T07:17:22.178Z,100397.65
2019-04-28T07:19:59.400Z,100397.30
2019-04-28T07:22:31.846Z,100396.59
2019-04-28T07:25:03.425Z,100391.38
2019-04-28T07:27:36.204Z,100389.72
2019-04-28T07:30:08.557Z,100396.17
2019-04-28T07:32:39.528Z,100398.77
2019-04-28T07:35:11.988Z,100402.02
2019-04-28T07:37:44.013Z,100396.72
2019-04-28T07:40:15.052Z,100409.99
2019-04-28T07:42:46.006Z,100413.99
2019-04-28T07:45:17.304Z,100418.12
2019-04-28T07:47:48.425Z,100418.39
2019-04-28T07:50:22.179Z,100406.58
2019-04-28T07:52:54.449Z,100400.39
2019-04-28T07:55:27.508Z,100393.65
2019-04-28T07:57:58.372Z,100396.30
2019-04-28T08:00:31.254Z,100401.36
2019-04-28T08:03:02.589Z,100400.88
2019-04-28T08:05:33.482Z,100402.86
2019-04-28T08:08:03.982Z,100398.66
2019-04-28T08:10:35.622Z,100395.26
2019-04-28T08:13:06.557Z,100391.84
2019-04-28T08:15:37.593Z,100405.92
2019-04-28T08:18:10.055Z,100395.25
2019-04-28T08:20:40.701Z,100387.38
2019-04-28T08:23:11.532Z,100384.84
2019-04-28T08:25:42.166Z,100386.13
2019-04-28T08:28:13.003Z,100391.32
2019-04-28T08:30:44.958Z,100391.06
2019-04-28T08:33:23.577Z,100388.76
2019-04-28T08:35:56.763Z,100382.98
2019-04-28T08:38:27.707Z,100391.84
2019-04-28T08:41:00.080Z,100386.45
2019-04-28T08:43:33.269Z,100389.20
2019-04-28T08:46:05.017Z,100386.25
2019-04-28T08:48:35.546Z,100419.96
2019-04-28T08:51:06.385Z,100388.11
2019-04-28T08:53:37.322Z,100385.22
2019-04-28T08:56:08.060Z,100385.73
2019-04-28T08:58:42.893Z,100376.94
2019-04-28T09:01:13.372Z,100380.28
2019-04-28T09:03:44.346Z,100380.31
2019-04-28T09:06:16.765Z,100384.45
2019-04-28T09:08:47.654Z,100374.23
2019-04-28T09:11:18.495Z,100381.69
2019-04-28T09:13:49.323Z,100383.16
2019-04-28T09:16:20.161Z,100375.81
2019-04-28T09:18:51.000Z,100366.59
2019-04-28T09:21:24.080Z,100367.60
2019-04-28T09:23:57.427Z,100366.11
2019-04-28T09:26:29.542Z,100365.31
2019-04-28T09:29:00.293Z,100330.56
2019-04-28T09:31:32.936Z,100373.02
2019-04-28T09:34:03.333Z,100361.92
2019-04-28T09:36:36.923Z,100364.89
2019-04-28T09:39:09.977Z,100362.84
2019-04-28T09:41:42.326Z,100368.16
2019-04-28T09:44:18.286Z,100365.67
2019-04-28T09:46:52.311Z,100369.23
2019-04-28T09:49:25.485Z,100372.08
2019-04-28T09:51:57.547Z,100368.03
2019-04-28T09:54:28.793Z,100373.08
2019-04-28T09:57:00.265Z,100370.77
2019-04-28T09:59:30.979Z,100377.09
2019-04-28T10:02:03.042Z,100378.94
2019-04-28T10:04:41.305Z,100380.98
2019-04-28T10:07:16.960Z,100368.94
2019-04-28T10:09:48.284Z,100379.55
2019-04-28T10:12:26.882Z,100380.16
2019-04-28T10:14:55.814Z,100372.39
2019-04-28T10:17:28.302Z,100379.82
2019-04-28T10:19:58.961Z,100365.59
2019-04-28T10:22:29.995Z,100376.47
2019-04-28T10:25:01.330Z,100379.27
2019-04-28T10:27:32.074Z,100386.77
2019-04-28T10:30:02.781Z,100376.11
2019-04-28T10:32:34.049Z,100379.97
2019-04-28T10:35:07.405Z,100373.20
2019-04-28T10:37:39.821Z,100367.85
2019-04-28T10:40:12.447Z,100369.84
2019-04-28T10:42:43.461Z,100366.95
2019-04-28T10:45:16.452Z,100365.11
2019-04-28T10:47:47.112Z,100355.41
2019-04-28T10:50:18.792Z,100356.90
2019-04-28T10:52:51.178Z,100357.56
2019-04-28T10:55:22.181Z,100361.75
2019-04-28T10:57:54.348Z,100353.59
2019-04-28T11:00:26.951Z,100343.53
2019-04-28T11:02:58.407Z,100361.66
2019-04-28T11:05:43.063Z,100353.03
2019-04-28T11:08:21.452Z,100348.22
2019-04-28T11:10:57.120Z,100354.38
2019-04-28T11:13:28.110Z,100360.11
2019-04-28T11:15:58.996Z,100353.13
2019-04-28T11:18:30.205Z,100363.25
2019-04-28T11:21:04.357Z,100354.06
2019-04-28T11:23:36.083Z,100381.94
2019-04-28T11:26:07.592Z,100369.45
2019-04-28T11:28:39.619Z,100369.05
2019-04-28T11:31:12.873Z,100370.01
2019-04-28T11:33:51.343Z,100361.17
2019-04-28T11:36:22.878Z,100359.95
2019-04-28T11:38:55.450Z,100353.80
2019-04-28T11:41:26.162Z,100349.89
2019-04-28T11:43:57.540Z,100347.62
2019-04-28T11:46:28.597Z,100348.20
2019-04-28T11:49:00.432Z,100338.27
2019-04-28T11:51:31.887Z,100333.01
2019-04-28T11:54:03.152Z,100333.78
2019-04-28T11:56:41.467Z,100335.14
2019-04-28T11:59:09.920Z,100328.66
2019-04-28T12:01:40.857Z,100328.11
2019-04-28T12:04:13.954Z,100319.07
2019-04-28T12:06:44.567Z,100312.77
2019-04-28T12:09:18.156Z,100309.58
2019-04-28T12:11:53.616Z,100309.62
2019-04-28T12:14:27.837Z,100307.41
2019-04-28T12:17:18.099Z,100312.41
2019-04-28T12:19:54.172Z,100305.40
2019-04-28T12:22:27.677Z,100294.64
2019-04-28T12:24:58.304Z,100292.11
2019-04-28T12:27:29.308Z,100292.95
2019-04-28T12:30:00.896Z,100291.94
2019-04-28T12:32:33.741Z,100291.73
2019-04-28T12:35:04.763Z,100288.55
2019-04-28T12:37:35.959Z,100296.19
2019-04-28T12:40:09.868Z,100293.97
2019-04-28T12:42:40.296Z,100296.55
2019-04-28T12:45:13.795Z,100302.65
2019-04-28T12:47:44.810Z,100297.38
2019-04-28T12:50:18.941Z,100289.38
2019-04-28T12:52:51.492Z,100293.30
2019-04-28T12:55:22.969Z,100289.27
2019-04-28T12:57:54.207Z,100294.19
2019-04-28T13:00:27.196Z,100302.24
2019-04-28T13:03:00.947Z,100295.15
2019-04-28T13:05:33.089Z,100289.50
2019-04-28T13:08:05.755Z,100290.69
2019-04-28T13:10:39.136Z,100282.28
2019-04-28T13:13:10.415Z,100278.57
2019-04-28T13:15:42.037Z,100278.60
2019-04-28T13:18:12.828Z,100272.68
2019-04-28T13:20:45.386Z,100266.76
2019-04-28T13:23:16.077Z,100273.19
2019-04-28T13:25:46.909Z,100268.36
2019-04-28T13:28:18.897Z,100259.61
2019-04-28T13:30:50.310Z,100269.92
2019-04-28T13:33:21.659Z,100258.86
2019-04-28T13:35:52.355Z,100250.64
2019-04-28T13:38:23.334Z,100246.27
2019-04-28T13:40:56.209Z,100245.05
2019-04-28T13:43:27.187Z,100248.92
2019-04-28T13:45:58.183Z,100237.23
2019-04-28T13:48:29.128Z,100235.36
2019-04-28T13:51:02.178Z,100234.98
2019-04-28T13:53:35.119Z,100233.00
2019-04-28T13:56:07.865Z,100230.98
2019-04-28T13:58:39.144Z,100230.32
2019-04-28T14:01:13.817Z,100231.16
2019-04-28T14:04:07.011Z,100235.58
2019-04-28T14:06:42.703Z,100237.36
2019-04-28T14:09:15.312Z,100236.35
2019-04-28T14:11:48.004Z,100195.86
2019-04-28T14:14:19.170Z,100236.08
2019-04-28T14:16:49.997Z,100230.35
2019-04-28T14:19:21.891Z,100237.03
2019-04-28T14:21:53.052Z,100221.48
2019-04-28T14:24:25.042Z,100224.34
2019-04-28T14:26:56.001Z,100221.75
2019-04-28T14:29:29.061Z,100222.16
2019-04-28T14:32:01.620Z,100227.47
2019-04-28T14:34:32.872Z,100226.59
2019-04-28T14:37:04.415Z,100222.59
2019-04-28T14:39:35.495Z,100181.09
2019-04-28T14:42:06.763Z,100228.40
2019-04-28T14:44:39.818Z,100222.59
2019-04-28T14:47:11.077Z,100225.64
2019-04-28T14:49:41.906Z,100222.92
2019-04-28T14:52:13.255Z,100219.85
2019-04-28T14:54:44.143Z,100224.95
2019-04-28T14:57:16.368Z,100223.70
2019-04-28T14:59:47.584Z,100214.28
2019-04-28T15:02:21.002Z,100218.83
2019-04-28T15:05:08.865Z,100214.87
2019-04-28T15:07:53.434Z,100214.36
2019-04-28T15:10:26.076Z,100213.08
2019-04-28T15:12:57.775Z,100209.06
2019-04-28T15:15:29.069Z,100209.85
2019-04-28T15:18:02.473Z,100207.27
2019-04-28T15:20:33.429Z,100203.20
2019-04-28T15:23:05.570Z,100205.41
2019-04-28T15:25:36.734Z,100202.87
2019-04-28T15:28:08.069Z,100199.61
2019-04-28T15:30:39.330Z,100200.41
2019-04-28T15:33:10.029Z,100196.52
2019-04-28T15:35:41.378Z,100190.08
2019-04-28T15:38:12.213Z,100189.23
2019-04-28T15:40:43.947Z,100193.21
2019-04-28T15:43:14.455Z,100184.27
2019-04-28T15:45:45.499Z,100189.73
2019-04-28T15:48:18.295Z,100186.73
2019-04-28T15:50:51.000Z,100192.52
2019-04-28T15:53:24.697Z,100187.28
2019-04-28T15:55:59.929Z,100183.98
2019-04-28T15:58:32.009Z,100183.23
2019-04-28T16:01:03.686Z,100181.50
2019-04-28T16:03:34.801Z,100177.14
2019-04-28T16:06:08.188Z,100178.73
2019-04-28T16:08:39.035Z,100178.36
2019-04-28T16:11:10.487Z,100180.36
2019-04-28T16:13:41.512Z,100183.84
2019-04-28T16:16:12.657Z,100180.28
2019-04-28T16:18:44.958Z,100187.11
2019-04-28T16:21:16.887Z,100185.81
2019-04-28T16:23:47.583Z,100180.31
2019-04-28T16:26:22.941Z,100183.39
2019-04-28T16:28:52.973Z,100178.55
2019-04-28T16:31:26.334Z,100180.92
2019-04-28T16:33:57.512Z,100188.35
2019-04-28T16:36:28.351Z,100192.66
2019-04-28T16:38:59.181Z,100187.79
2019-04-28T16:41:33.087Z,100194.16
2019-04-28T16:44:10.614Z,100200.52
2019-04-28T16:46:41.153Z,100200.30
2019-04-28T16:49:14.694Z,100206.00
2019-04-28T16:51:45.749Z,100207.14
2019-04-28T16:54:16.683Z,100208.03
2019-04-28T16:56:59.387Z,100214.52
2019-04-28T16:59:50.506Z,100215.62
2019-04-28T17:02:23.351Z,100218.44
2019-04-28T17:04:56.779Z,100221.56
2019-04-28T17:07:28.021Z,100219.82
2019-04-28T17:09:59.233Z,100225.71
2019-04-28T17:12:30.316Z,100229.38
2019-04-28T17:15:01.488Z,100237.25
2019-04-28T17:17:32.677Z,100230.48
2019-04-28T17:20:04.629Z,100236.92
2019-04-28T17:22:35.187Z,100238.60
2019-04-28T17:25:07.386Z,100239.97
2019-04-28T17:27:39.727Z,100240.25
2019-04-28T17:30:14.754Z,100244.75
2019-04-28T17:32:45.606Z,100252.58
2019-04-28T17:35:16.943Z,100257.08
2019-04-28T17:37:47.878Z,100259.61
2019-04-28T17:40:20.352Z,100259.61
2019-04-28T17:42:50.988Z,100261.84
2019-04-28T17:45:23.172Z,100268.88
2019-04-28T17:47:55.422Z,100273.66
2019-04-28T17:50:27.871Z,100275.58
2019-04-28T17:53:00.567Z,100276.75
2019-04-28T17:55:32.117Z,100281.25
2019-04-28T17:58:02.761Z,100284.89
2019-04-28T18:00:47.873Z,100280.97
2019-04-28T18:03:36.776Z,100292.49
2019-04-28T18:06:18.570Z,100296.42
2019-04-28T18:08:49.710Z,100303.16
2019-04-28T18:11:20.651Z,100297.55
2019-04-28T18:13:52.991Z,100304.02
2019-04-28T18:16:40.236Z,100303.17
2019-04-28T18:19:20.184Z,100309.92
2019-04-28T18:21:51.672Z,100258.05
2019-04-28T18:24:24.588Z,100309.91
2019-04-28T18:26:55.922Z,100315.53
2019-04-28T18:29:27.930Z,100313.56
2019-04-28T18:32:00.372Z,100310.20
2019-04-28T18:34:34.488Z,100311.87
2019-04-28T18:37:19.503Z,100312.16
2019-04-28T18:40:02.997Z,100314.36
2019-04-28T18:42:48.125Z,100309.02
2019-04-28T18:45:19.001Z,100317.16
2019-04-28T18:47:52.314Z,100311.20
2019-04-28T18:50:26.051Z,100308.08
2019-04-28T18:52:56.947Z,100308.56
2019-04-28T18:55:27.884Z,100312.77
2019-04-28T18:57:59.026Z,100308.19
2019-04-28T19:00:31.808Z,100308.99
2019-04-28T19:03:03.686Z,100305.53
2019-04-28T19:05:36.292Z,100305.48
2019-04-28T19:08:08.658Z,100308.30
2019-04-28T19:10:42.523Z,100302.48
2019-04-28T19:13:15.901Z,100308.37
2019-04-28T19:15:58.014Z,100306.41
2019-04-28T19:18:32.533Z,100302.86
2019-04-28T19:21:03.882Z,100305.10
2019-04-28T19:23:34.920Z,100301.87
2019-04-28T19:26:06.576Z,100305.48
2019-04-28T19:28:39.250Z,100306.85
2019-04-28T19:31:13.145Z,100308.66
2019-04-28T19:33:43.768Z,100307.60
2019-04-28T19:36:17.080Z,100315.47
2019-04-28T19:39:02.209Z,100310.16
2019-04-28T19:41:21.146Z,100309.92
2019-04-28T19:43:53.990Z,100306.86
2019-04-28T19:46:24.539Z,100316.97
2019-04-28T19:48:57.190Z,100313.05
2019-04-28T19:51:31.995Z,100323.42
2019-04-28T19:54:00.874Z,100324.55
2019-04-28T19:56:52.947Z,100325.37
2019-04-28T19:59:34.120Z,100326.78
2019-04-28T20:02:05.111Z,100316.91
2019-04-28T20:04:37.845Z,100321.92
2019-04-28T20:07:08.639Z,100325.77
2019-04-28T20:09:39.833Z,100329.64
2019-04-28T20:12:13.185Z,100328.19
2019-04-28T20:14:45.072Z,100332.89
2019-04-28T20:17:15.801Z,100331.75
2019-04-28T20:19:48.376Z,100340.07
2019-04-28T20:22:19.522Z,100329.66
2019-04-28T20:24:50.354Z,100341.42
2019-04-28T20:27:21.959Z,100338.88
2019-04-28T20:29:52.882Z,100338.47
2019-04-28T20:32:24.604Z,100345.51
2019-04-28T20:34:57.593Z,100340.15
2019-04-28T20:37:29.865Z,100343.99
2019-04-28T20:40:02.390Z,100345.11
2019-04-28T20:42:52.213Z,100344.78
2019-04-28T20:45:23.359Z,100344.70
2019-04-28T20:47:57.658Z,100341.87
2019-04-28T20:50:28.126Z,100346.38
2019-04-28T20:52:59.548Z,100339.34
2019-04-28T20:55:32.350Z,100346.35
2019-04-28T20:58:02.911Z,100342.64
2019-04-28T21:00:34.719Z,100348.13
2019-04-28T21:03:05.614Z,100352.78
2019-04-28T21:05:36.690Z,100352.22
2019-04-28T21:08:07.545Z,100355.60
2019-04-28T21:10:38.734Z,100359.76
2019-04-28T21:13:11.135Z,100361.34
2019-04-28T21:15:42.383Z,100364.41
2019-04-28T21:18:15.162Z,100366.31
2019-04-28T21:20:46.414Z,100359.30
2019-04-28T21:23:17.361Z,100366.23
2019-04-28T21:25:48.384Z,100374.42
2019-04-28T21:28:19.237Z,100369.35
2019-04-28T21:30:53.331Z,100374.63
2019-04-28T21:33:25.733Z,100368.97
2019-04-28T21:35:57.476Z,100363.63
2019-04-28T21:38:28.598Z,100375.39
2019-04-28T21:41:01.840Z,100368.12
2019-04-28T21:43:38.157Z,100374.28
2019-04-28T21:46:25.574Z,100372.86
2019-04-28T21:48:58.152Z,100375.39
2019-04-28T21:51:29.804Z,100376.56
2019-04-28T21:54:02.429Z,100371.48
2019-04-28T21:56:33.011Z,100378.48
2019-04-28T21:59:04.072Z,100376.67
2019-04-28T22:01:35.107Z,100380.33
2019-04-28T22:04:06.129Z,100376.12
2019-04-28T22:06:39.417Z,100376.09
2019-04-28T22:09:11.074Z,100374.89
2019-04-28T22:11:42.219Z,100378.25
2019-04-28T22:14:15.511Z,100366.95
2019-04-28T22:16:47.522Z,100371.15
2019-04-28T22:19:19.112Z,100365.48
2019-04-28T22:21:52.006Z,100364.41
2019-04-28T22:24:26.944Z,100356.23
2019-04-28T22:26:58.080Z,100356.80
2019-04-28T22:29:28.816Z,100354.81
2019-04-28T22:31:59.646Z,100358.19
2019-04-28T22:34:31.109Z,100356.47
2019-04-28T22:37:02.002Z,100352.53
2019-04-28T22:39:34.440Z,100358.42
2019-04-28T22:42:05.520Z,100358.63
2019-04-28T22:44:37.613Z,100350.16
2019-04-28T22:47:08.243Z,100350.16
2019-04-28T22:49:39.105Z,100352.66
2019-04-28T22:52:12.165Z,100351.98
2019-04-28T22:54:47.810Z,100356.19
2019-04-28T22:57:39.396Z,100348.30
2019-04-28T23:00:31.054Z,100350.55
2019-04-28T23:03:01.755Z,100348.83
2019-04-28T23:05:32.812Z,100345.44
2019-04-28T23:08:03.779Z,100348.43
2019-04-28T23:10:34.916Z,100342.18
2019-04-28T23:13:05.638Z,100342.99
2019-04-28T23:15:36.678Z,100337.59
2019-04-28T23:18:07.819Z,100334.20
2019-04-28T23:20:40.395Z,100333.36
2019-04-28T23:23:12.471Z,100335.34
2019-04-28T23:25:45.125Z,100335.27
2019-04-28T23:28:17.494Z,100333.14
2019-04-28T23:30:48.893Z,100333.14
2019-04-28T23:33:20.616Z,100335.47
2019-04-28T23:35:51.652Z,100338.78
2019-04-28T23:38:22.553Z,100344.00
2019-04-28T23:41:11.960Z,100344.03
2019-04-28T23:43:42.773Z,100344.95
2019-04-28T23:46:13.649Z,100340.86
2019-04-28T23:48:45.389Z,100342.42
2019-04-28T23:51:35.561Z,100346.80
2019-04-28T23:54:08.071Z,100345.86
2019-04-28T23:56:39.084Z,100345.45
2019-04-28T23:59:11.353Z,100348.11
